Rizokarpason, Cyprus
Current Conditions -  °F | °C
As of 12:50 PM on Friday 24 Oct 2014 (Local Time) from LCEN Reporting Station
Scattered Clouds Scattered Clouds  
Wind Chill: 28°   Ceiling: Unl
Heat Index: 28°   Visibility: 6mi
Dew Point: 11°   Wind: 15mph
Humidity: 35%   Direction: 200°SSW
Pressure: 29.97"   Gusts: NA
Location:  35.58°N, 34.4°E
Report Text: LCEN 240950Z 20013KT 9999 FEW025CB SCT030 28/11 Q1015 NOSIG
Loading
Personal Weather Stations






























Interactive Weather Map
Tropical Storm Tracking
New forecast layout! Learn more

10-Day Weather Forecast

Advertisements
Track Severe Weather on mobile